Putney, VT (05346)

4:53 AM EST on December 18, 2014 (GMT -0500)
Green Mountain Orchard | Change Station
CLOSE
Current Station
Personal Weather Station
Location: Putney, VT
Elevation: 715 ft
Nearby Weather Stations

Elev 715 ft 42.99 °N, 72.54 °W | Updated 6 seconds ago

Overcast
Overcast
34.3 °F
Feels Like 34 °F
N
3.0
Wind Variable Wind from WNW
Gusts 7.0 mph

Today
High -- | Low -- °F
--% Chance of Precip.
Yesterday
High -- | Low -- °F
Precip. -- in
7:16 AM 4:16 PM
Waning Crescent, 15% visible
Pressure 29.74 in
Visibility 6.0 miles
Clouds Scattered Clouds 2500 ft
Overcast 3100 ft
Windchill 34 °F
Dew Point 33 °F
Humidity 96%
Rainfall 0.00 in
Snow Depth Not available.
UV 0 out of 12
Pollen .10 out of 12
Air Quality Not available.
Flu Activity Not available.
METAR KEEN 180935Z AUTO 00000KT 6SM SCT025 OVC031 01/00 A2974 RMK AO1

More Conditions Fewer Conditions

Pressure 29.74 in
Visibility 6.0 miles
Clouds Scattered Clouds 2500 ft
Overcast 3100 ft
Windchill 34 °F
Dew Point 33 °F
Humidity 96%
Rainfall 0.00 in
Snow Depth Not available.
UV 0 out of 12
Pollen .10 out of 12
Air Quality Not available.
Flu Activity Not available.
METAR KEEN 180935Z AUTO 00000KT 6SM SCT025 OVC031 01/00 A2974 RMK AO1

More Conditions Fewer Conditions

10-Day Weather Forecast

Almanac

Astronomy

Dec. 18, 2014 Rise Set
Actual Time
Civil Twilight
Nautical Twilight
Astronomical Twilight
Moon
Length of Visible Light
Length of Day
Tomorrow will be .
, % of the Moon is Illuminated

Today's Extremes

State Highs State Lows

Community

WunderPhotos

Upload Photos

1,778,907 photos uploaded!

WunderBlogs® & News

Nearby

Air Quality

  Air Quality AQ Index Pollutant
Not available.

Snow Depth

Station Depth Elevation

Earthquake Activity

City Distance Mag. Time & Date
Minimum magnitude displayed is 2.5.

Coastal Water Temperatures

Place Temperature

Nearby Weather Stations